sensor_id;sensor_type;location;lat;lon;timestamp;temperature;humidity
40960;DHT22;27842;52.272;8.052;2023-08-17T00:00:19;19.30;95.90
40960;DHT22;27842;52.272;8.052;2023-08-17T00:02:45;19.30;95.90
40960;DHT22;27842;52.272;8.052;2023-08-17T00:05:10;19.30;95.90
40960;DHT22;27842;52.272;8.052;2023-08-17T00:07:37;19.30;95.90
40960;DHT22;27842;52.272;8.052;2023-08-17T00:10:03;19.30;96.00
40960;DHT22;27842;52.272;8.052;2023-08-17T00:12:28;19.20;96.00
40960;DHT22;27842;52.272;8.052;2023-08-17T00:14:54;19.20;96.00
40960;DHT22;27842;52.272;8.052;2023-08-17T00:17:20;19.20;96.10
40960;DHT22;27842;52.272;8.052;2023-08-17T00:19:45;19.10;96.10
40960;DHT22;27842;52.272;8.052;2023-08-17T00:22:11;19.10;96.10
40960;DHT22;27842;52.272;8.052;2023-08-17T00:24:36;19.10;96.10
40960;DHT22;27842;52.272;8.052;2023-08-17T00:27:02;19.10;96.20
40960;DHT22;27842;52.272;8.052;2023-08-17T00:29:29;19.10;96.20
40960;DHT22;27842;52.272;8.052;2023-08-17T00:31:54;19.10;96.10
40960;DHT22;27842;52.272;8.052;2023-08-17T00:34:20;19.10;96.00
40960;DHT22;27842;52.272;8.052;2023-08-17T00:36:45;19.10;95.90
40960;DHT22;27842;52.272;8.052;2023-08-17T00:39:11;19.10;96.00
40960;DHT22;27842;52.272;8.052;2023-08-17T00:41:36;19.00;96.00
40960;DHT22;27842;52.272;8.052;2023-08-17T00:44:02;19.00;96.10
40960;DHT22;27842;52.272;8.052;2023-08-17T00:46:28;19.00;96.10
40960;DHT22;27842;52.272;8.052;2023-08-17T00:48:54;19.00;96.10
40960;DHT22;27842;52.272;8.052;2023-08-17T00:51:21;18.90;96.10
40960;DHT22;27842;52.272;8.052;2023-08-17T00:53:49;18.90;96.30
40960;DHT22;27842;52.272;8.052;2023-08-17T00:56:15;19.00;96.10
40960;DHT22;27842;52.272;8.052;2023-08-17T00:58:41;19.00;96.20
40960;DHT22;27842;52.272;8.052;2023-08-17T01:01:07;18.90;96.30
40960;DHT22;27842;52.272;8.052;2023-08-17T01:03:33;18.80;96.30
40960;DHT22;27842;52.272;8.052;2023-08-17T01:05:59;18.80;96.30
40960;DHT22;27842;52.272;8.052;2023-08-17T01:08:28;18.90;96.10
40960;DHT22;27842;52.272;8.052;2023-08-17T01:16:25;18.90;96.40
40960;DHT22;27842;52.272;8.052;2023-08-17T01:18:51;18.80;96.20
40960;DHT22;27842;52.272;8.052;2023-08-17T01:21:17;18.80;96.30
40960;DHT22;27842;52.272;8.052;2023-08-17T01:23:46;18.80;96.30
40960;DHT22;27842;52.272;8.052;2023-08-17T01:26:12;18.80;96.20
40960;DHT22;27842;52.272;8.052;2023-08-17T01:28:44;18.80;96.20
40960;DHT22;27842;52.272;8.052;2023-08-17T01:31:11;18.80;96.10
40960;DHT22;27842;52.272;8.052;2023-08-17T01:33:40;18.80;96.20
40960;DHT22;27842;52.272;8.052;2023-08-17T01:36:12;18.80;96.20
40960;DHT22;27842;52.272;8.052;2023-08-17T01:38:38;18.80;96.10
40960;DHT22;27842;52.272;8.052;2023-08-17T01:41:05;18.80;96.10
40960;DHT22;27842;52.272;8.052;2023-08-17T01:43:32;18.90;96.00
40960;DHT22;27842;52.272;8.052;2023-08-17T01:45:58;18.80;96.10
40960;DHT22;27842;52.272;8.052;2023-08-17T01:48:24;18.90;96.10
40960;DHT22;27842;52.272;8.052;2023-08-17T01:50:50;18.90;96.10
40960;DHT22;27842;52.272;8.052;2023-08-17T01:53:15;18.90;96.00
40960;DHT22;27842;52.272;8.052;2023-08-17T01:55:41;18.80;96.10
40960;DHT22;27842;52.272;8.052;2023-08-17T01:58:06;18.90;96.00
40960;DHT22;27842;52.272;8.052;2023-08-17T02:00:32;18.80;96.00
40960;DHT22;27842;52.272;8.052;2023-08-17T02:02:57;18.80;96.20
40960;DHT22;27842;52.272;8.052;2023-08-17T02:05:23;18.80;96.10
40960;DHT22;27842;52.272;8.052;2023-08-17T02:07:48;18.80;96.00
40960;DHT22;27842;52.272;8.052;2023-08-17T02:10:13;18.90;96.00
40960;DHT22;27842;52.272;8.052;2023-08-17T02:12:39;18.90;96.00
40960;DHT22;27842;52.272;8.052;2023-08-17T02:15:05;18.90;95.90
40960;DHT22;27842;52.272;8.052;2023-08-17T02:17:30;18.80;96.00
40960;DHT22;27842;52.272;8.052;2023-08-17T02:19:56;18.90;96.10
40960;DHT22;27842;52.272;8.052;2023-08-17T02:22:21;18.80;95.90
40960;DHT22;27842;52.272;8.052;2023-08-17T02:24:47;18.80;96.00
40960;DHT22;27842;52.272;8.052;2023-08-17T02:27:12;18.80;96.00
40960;DHT22;27842;52.272;8.052;2023-08-17T02:29:38;18.80;95.80
40960;DHT22;27842;52.272;8.052;2023-08-17T02:32:04;18.80;95.90
40960;DHT22;27842;52.272;8.052;2023-08-17T02:34:30;18.70;95.90
40960;DHT22;27842;52.272;8.052;2023-08-17T02:36:55;18.80;96.00
40960;DHT22;27842;52.272;8.052;2023-08-17T02:39:21;18.70;96.00
40960;DHT22;27842;52.272;8.052;2023-08-17T02:41:46;18.70;96.10
40960;DHT22;27842;52.272;8.052;2023-08-17T02:44:14;18.60;96.10
40960;DHT22;27842;52.272;8.052;2023-08-17T02:46:40;18.70;96.20
40960;DHT22;27842;52.272;8.052;2023-08-17T02:49:05;18.70;96.00
40960;DHT22;27842;52.272;8.052;2023-08-17T02:51:31;18.70;96.10
40960;DHT22;27842;52.272;8.052;2023-08-17T02:53:56;18.70;96.00
40960;DHT22;27842;52.272;8.052;2023-08-17T02:56:22;18.70;96.00
40960;DHT22;27842;52.272;8.052;2023-08-17T02:58:47;18.70;96.00
40960;DHT22;27842;52.272;8.052;2023-08-17T03:01:13;18.80;96.30
40960;DHT22;27842;52.272;8.052;2023-08-17T03:03:38;18.70;96.10
40960;DHT22;27842;52.272;8.052;2023-08-17T03:06:04;18.70;96.10
40960;DHT22;27842;52.272;8.052;2023-08-17T03:08:30;18.70;96.20
40960;DHT22;27842;52.272;8.052;2023-08-17T03:10:55;18.70;96.20
40960;DHT22;27842;52.272;8.052;2023-08-17T03:13:21;18.70;96.10
40960;DHT22;27842;52.272;8.052;2023-08-17T03:15:46;18.70;96.10
40960;DHT22;27842;52.272;8.052;2023-08-17T03:18:12;18.70;96.10
40960;DHT22;27842;52.272;8.052;2023-08-17T03:20:37;18.60;96.20
40960;DHT22;27842;52.272;8.052;2023-08-17T03:23:03;18.60;96.20
40960;DHT22;27842;52.272;8.052;2023-08-17T03:25:32;18.60;96.20
40960;DHT22;27842;52.272;8.052;2023-08-17T03:27:58;18.60;96.20
40960;DHT22;27842;52.272;8.052;2023-08-17T03:30:23;18.60;96.20
40960;DHT22;27842;52.272;8.052;2023-08-17T03:32:49;18.70;96.10
40960;DHT22;27842;52.272;8.052;2023-08-17T03:35:14;18.70;96.00
40960;DHT22;27842;52.272;8.052;2023-08-17T03:37:40;18.70;96.30
40960;DHT22;27842;52.272;8.052;2023-08-17T03:40:06;18.70;96.10
40960;DHT22;27842;52.272;8.052;2023-08-17T03:42:31;18.70;96.10
40960;DHT22;27842;52.272;8.052;2023-08-17T03:44:57;18.70;96.10
40960;DHT22;27842;52.272;8.052;2023-08-17T03:47:22;18.70;96.00
40960;DHT22;27842;52.272;8.052;2023-08-17T03:49:48;18.70;96.10
40960;DHT22;27842;52.272;8.052;2023-08-17T03:52:13;18.70;96.10
40960;DHT22;27842;52.272;8.052;2023-08-17T03:54:39;18.70;96.40
40960;DHT22;27842;52.272;8.052;2023-08-17T03:57:04;18.60;96.10
40960;DHT22;27842;52.272;8.052;2023-08-17T03:59:30;18.70;96.10
40960;DHT22;27842;52.272;8.052;2023-08-17T04:01:55;18.70;96.00
40960;DHT22;27842;52.272;8.052;2023-08-17T04:04:21;18.70;96.10
40960;DHT22;27842;52.272;8.052;2023-08-17T04:06:46;18.70;96.20
40960;DHT22;27842;52.272;8.052;2023-08-17T04:09:12;18.60;96.10
40960;DHT22;27842;52.272;8.052;2023-08-17T04:11:37;18.70;96.20
40960;DHT22;27842;52.272;8.052;2023-08-17T04:14:03;18.60;96.10
40960;DHT22;27842;52.272;8.052;2023-08-17T04:16:29;18.60;96.20
40960;DHT22;27842;52.272;8.052;2023-08-17T04:18:54;18.60;96.40
40960;DHT22;27842;52.272;8.052;2023-08-17T04:21:20;18.60;96.20
40960;DHT22;27842;52.272;8.052;2023-08-17T04:23:46;18.60;96.20
40960;DHT22;27842;52.272;8.052;2023-08-17T04:26:14;18.60;96.20
40960;DHT22;27842;52.272;8.052;2023-08-17T04:28:40;18.60;96.30
40960;DHT22;27842;52.272;8.052;2023-08-17T04:31:05;18.60;96.30
40960;DHT22;27842;52.272;8.052;2023-08-17T04:33:31;18.60;96.30
40960;DHT22;27842;52.272;8.052;2023-08-17T04:35:56;18.60;96.50
40960;DHT22;27842;52.272;8.052;2023-08-17T04:38:24;18.50;96.50
40960;DHT22;27842;52.272;8.052;2023-08-17T04:40:50;18.60;96.30
40960;DHT22;27842;52.272;8.052;2023-08-17T04:43:16;18.60;96.50
40960;DHT22;27842;52.272;8.052;2023-08-17T04:45:41;18.60;96.30
40960;DHT22;27842;52.272;8.052;2023-08-17T04:48:07;18.50;96.30
40960;DHT22;27842;52.272;8.052;2023-08-17T04:50:32;18.50;96.40
40960;DHT22;27842;52.272;8.052;2023-08-17T04:52:58;18.50;96.40
40960;DHT22;27842;52.272;8.052;2023-08-17T04:55:26;18.40;97.20
40960;DHT22;27842;52.272;8.052;2023-08-17T04:57:52;18.40;96.60
40960;DHT22;27842;52.272;8.052;2023-08-17T05:00:17;18.40;97.00
40960;DHT22;27842;52.272;8.052;2023-08-17T05:02:45;18.40;96.80
40960;DHT22;27842;52.272;8.052;2023-08-17T05:05:10;18.30;96.70
40960;DHT22;27842;52.272;8.052;2023-08-17T05:07:36;18.30;97.00
40960;DHT22;27842;52.272;8.052;2023-08-17T05:10:02;18.30;96.70
40960;DHT22;27842;52.272;8.052;2023-08-17T05:12:28;18.40;97.30
40960;DHT22;27842;52.272;8.052;2023-08-17T05:14:53;18.40;96.90
40960;DHT22;27842;52.272;8.052;2023-08-17T05:17:19;18.40;96.90
40960;DHT22;27842;52.272;8.052;2023-08-17T05:19:44;18.40;96.90
40960;DHT22;27842;52.272;8.052;2023-08-17T05:22:11;18.40;97.10
40960;DHT22;27842;52.272;8.052;2023-08-17T05:24:37;18.40;96.80
40960;DHT22;27842;52.272;8.052;2023-08-17T05:27:02;18.40;96.90
40960;DHT22;27842;52.272;8.052;2023-08-17T05:29:27;18.30;96.90
40960;DHT22;27842;52.272;8.052;2023-08-17T05:31:53;18.30;96.90
40960;DHT22;27842;52.272;8.052;2023-08-17T05:34:19;18.30;96.90
40960;DHT22;27842;52.272;8.052;2023-08-17T05:36:44;18.40;96.90
40960;DHT22;27842;52.272;8.052;2023-08-17T05:39:10;18.40;96.90
40960;DHT22;27842;52.272;8.052;2023-08-17T05:41:35;18.40;97.00
40960;DHT22;27842;52.272;8.052;2023-08-17T05:44:01;18.40;96.90
40960;DHT22;27842;52.272;8.052;2023-08-17T05:46:26;18.40;96.90
40960;DHT22;27842;52.272;8.052;2023-08-17T05:48:53;18.40;96.90
40960;DHT22;27842;52.272;8.052;2023-08-17T05:51:19;18.40;96.90
40960;DHT22;27842;52.272;8.052;2023-08-17T05:53:45;18.40;97.00
40960;DHT22;27842;52.272;8.052;2023-08-17T05:56:10;18.40;97.00
40960;DHT22;27842;52.272;8.052;2023-08-17T05:58:36;18.40;97.10
40960;DHT22;27842;52.272;8.052;2023-08-17T06:01:07;18.40;97.50
40960;DHT22;27842;52.272;8.052;2023-08-17T06:03:34;18.30;97.80
40960;DHT22;27842;52.272;8.052;2023-08-17T06:05:59;18.30;97.10
40960;DHT22;27842;52.272;8.052;2023-08-17T06:08:25;18.30;97.20
40960;DHT22;27842;52.272;8.052;2023-08-17T06:10:50;18.30;97.60
40960;DHT22;27842;52.272;8.052;2023-08-17T06:13:16;18.30;97.30
40960;DHT22;27842;52.272;8.052;2023-08-17T06:15:41;18.30;97.30
40960;DHT22;27842;52.272;8.052;2023-08-17T06:18:07;18.30;97.20
40960;DHT22;27842;52.272;8.052;2023-08-17T06:20:32;18.30;97.30
40960;DHT22;27842;52.272;8.052;2023-08-17T06:22:58;18.30;97.20
40960;DHT22;27842;52.272;8.052;2023-08-17T06:25:23;18.30;97.20
40960;DHT22;27842;52.272;8.052;2023-08-17T06:27:51;18.30;97.20
40960;DHT22;27842;52.272;8.052;2023-08-17T06:30:16;18.30;97.20
40960;DHT22;27842;52.272;8.052;2023-08-17T06:32:42;18.30;97.20
40960;DHT22;27842;52.272;8.052;2023-08-17T06:35:08;18.30;97.30
40960;DHT22;27842;52.272;8.052;2023-08-17T06:37:33;18.30;97.20
40960;DHT22;27842;52.272;8.052;2023-08-17T06:39:59;18.30;97.20
40960;DHT22;27842;52.272;8.052;2023-08-17T06:42:24;18.30;97.60
40960;DHT22;27842;52.272;8.052;2023-08-17T06:44:50;18.30;97.50
40960;DHT22;27842;52.272;8.052;2023-08-17T06:47:15;18.30;97.40
40960;DHT22;27842;52.272;8.052;2023-08-17T06:49:41;18.30;97.50
40960;DHT22;27842;52.272;8.052;2023-08-17T06:52:06;18.30;98.20
40960;DHT22;27842;52.272;8.052;2023-08-17T06:54:32;18.30;97.50
40960;DHT22;27842;52.272;8.052;2023-08-17T06:56:58;18.30;97.60
40960;DHT22;27842;52.272;8.052;2023-08-17T06:59:23;18.30;97.40
40960;DHT22;27842;52.272;8.052;2023-08-17T07:01:48;18.30;97.50
40960;DHT22;27842;52.272;8.052;2023-08-17T07:04:14;18.30;97.40
40960;DHT22;27842;52.272;8.052;2023-08-17T07:06:39;18.30;97.40
40960;DHT22;27842;52.272;8.052;2023-08-17T07:09:06;18.40;97.50
40960;DHT22;27842;52.272;8.052;2023-08-17T07:11:32;18.30;97.30
40960;DHT22;27842;52.272;8.052;2023-08-17T07:13:57;18.40;97.50
40960;DHT22;27842;52.272;8.052;2023-08-17T07:16:22;18.40;98.30
40960;DHT22;27842;52.272;8.052;2023-08-17T07:18:48;18.30;97.70
40960;DHT22;27842;52.272;8.052;2023-08-17T07:21:13;18.30;97.60
40960;DHT22;27842;52.272;8.052;2023-08-17T07:23:39;18.30;97.70
40960;DHT22;27842;52.272;8.052;2023-08-17T07:26:05;18.30;97.50
40960;DHT22;27842;52.272;8.052;2023-08-17T07:28:30;18.30;97.50
40960;DHT22;27842;52.272;8.052;2023-08-17T07:30:55;18.30;97.50
40960;DHT22;27842;52.272;8.052;2023-08-17T07:33:21;18.40;97.50
40960;DHT22;27842;52.272;8.052;2023-08-17T07:35:46;18.40;98.30
40960;DHT22;27842;52.272;8.052;2023-08-17T07:38:12;18.40;97.60
40960;DHT22;27842;52.272;8.052;2023-08-17T07:40:38;18.30;97.60
40960;DHT22;27842;52.272;8.052;2023-08-17T07:43:03;18.40;98.60
40960;DHT22;27842;52.272;8.052;2023-08-17T07:45:29;18.40;97.70
40960;DHT22;27842;52.272;8.052;2023-08-17T07:47:54;18.40;97.70
40960;DHT22;27842;52.272;8.052;2023-08-17T07:50:20;18.40;97.60
40960;DHT22;27842;52.272;8.052;2023-08-17T07:52:46;18.40;98.00
40960;DHT22;27842;52.272;8.052;2023-08-17T07:55:12;18.40;97.70
40960;DHT22;27842;52.272;8.052;2023-08-17T07:57:37;18.40;97.70
40960;DHT22;27842;52.272;8.052;2023-08-17T08:00:03;18.50;97.80
40960;DHT22;27842;52.272;8.052;2023-08-17T08:02:29;18.50;98.00
40960;DHT22;27842;52.272;8.052;2023-08-17T08:04:54;18.50;97.90
40960;DHT22;27842;52.272;8.052;2023-08-17T08:07:20;18.50;97.90
40960;DHT22;27842;52.272;8.052;2023-08-17T08:09:45;18.50;98.20
40960;DHT22;27842;52.272;8.052;2023-08-17T08:12:11;18.50;98.20
40960;DHT22;27842;52.272;8.052;2023-08-17T08:14:36;18.40;98.40
40960;DHT22;27842;52.272;8.052;2023-08-17T08:17:02;18.40;98.50
40960;DHT22;27842;52.272;8.052;2023-08-17T08:19:27;18.40;98.80
40960;DHT22;27842;52.272;8.052;2023-08-17T08:21:53;18.40;99.00
40960;DHT22;27842;52.272;8.052;2023-08-17T08:24:18;18.40;98.60
40960;DHT22;27842;52.272;8.052;2023-08-17T08:26:44;18.50;98.60
40960;DHT22;27842;52.272;8.052;2023-08-17T08:29:09;18.40;98.90
40960;DHT22;27842;52.272;8.052;2023-08-17T08:31:35;18.40;98.70
40960;DHT22;27842;52.272;8.052;2023-08-17T08:34:00;18.40;99.30
40960;DHT22;27842;52.272;8.052;2023-08-17T08:36:26;18.50;99.10
40960;DHT22;27842;52.272;8.052;2023-08-17T08:38:51;18.50;99.90
40960;DHT22;27842;52.272;8.052;2023-08-17T08:41:17;18.50;99.10
40960;DHT22;27842;52.272;8.052;2023-08-17T08:43:42;18.50;98.80
40960;DHT22;27842;52.272;8.052;2023-08-17T08:46:08;18.60;98.80
40960;DHT22;27842;52.272;8.052;2023-08-17T08:48:34;18.60;99.00
40960;DHT22;27842;52.272;8.052;2023-08-17T08:51:07;18.60;98.80
40960;DHT22;27842;52.272;8.052;2023-08-17T08:53:44;18.50;98.80
40960;DHT22;27842;52.272;8.052;2023-08-17T08:56:13;18.60;99.00
40960;DHT22;27842;52.272;8.052;2023-08-17T08:58:40;18.60;98.90
40960;DHT22;27842;52.272;8.052;2023-08-17T09:01:07;18.70;98.90
40960;DHT22;27842;52.272;8.052;2023-08-17T09:03:36;18.70;98.90
40960;DHT22;27842;52.272;8.052;2023-08-17T09:06:01;18.70;99.10
40960;DHT22;27842;52.272;8.052;2023-08-17T09:08:27;18.70;98.80
40960;DHT22;27842;52.272;8.052;2023-08-17T09:10:53;18.70;98.70
40960;DHT22;27842;52.272;8.052;2023-08-17T09:13:19;18.70;99.50
40960;DHT22;27842;52.272;8.052;2023-08-17T09:15:44;18.70;99.00
40960;DHT22;27842;52.272;8.052;2023-08-17T09:18:10;18.70;98.80
40960;DHT22;27842;52.272;8.052;2023-08-17T09:20:39;18.70;98.90
40960;DHT22;27842;52.272;8.052;2023-08-17T09:23:09;18.70;98.80
40960;DHT22;27842;52.272;8.052;2023-08-17T09:25:35;18.80;99.00
40960;DHT22;27842;52.272;8.052;2023-08-17T09:28:06;18.80;98.80
40960;DHT22;27842;52.272;8.052;2023-08-17T09:30:32;18.80;99.90
40960;DHT22;27842;52.272;8.052;2023-08-17T09:33:01;18.80;99.00
40960;DHT22;27842;52.272;8.052;2023-08-17T09:35:27;18.70;98.90
40960;DHT22;27842;52.272;8.052;2023-08-17T09:37:56;18.80;99.00
40960;DHT22;27842;52.272;8.052;2023-08-17T09:40:25;18.80;99.20
40960;DHT22;27842;52.272;8.052;2023-08-17T09:42:51;18.80;99.00
40960;DHT22;27842;52.272;8.052;2023-08-17T09:45:17;18.80;99.00
40960;DHT22;27842;52.272;8.052;2023-08-17T09:47:42;18.80;99.00
40960;DHT22;27842;52.272;8.052;2023-08-17T09:50:08;18.80;99.80
40960;DHT22;27842;52.272;8.052;2023-08-17T09:52:38;18.80;99.40
40960;DHT22;27842;52.272;8.052;2023-08-17T09:55:03;18.80;99.60
40960;DHT22;27842;52.272;8.052;2023-08-17T09:57:30;18.70;99.50
40960;DHT22;27842;52.272;8.052;2023-08-17T09:59:55;18.70;99.90
40960;DHT22;27842;52.272;8.052;2023-08-17T10:02:22;18.70;99.90
40960;DHT22;27842;52.272;8.052;2023-08-17T10:04:52;18.70;99.90
40960;DHT22;27842;52.272;8.052;2023-08-17T10:07:21;18.70;99.90
40960;DHT22;27842;52.272;8.052;2023-08-17T10:10:07;18.70;99.90
40960;DHT22;27842;52.272;8.052;2023-08-17T10:13:20;18.70;99.80
40960;DHT22;27842;52.272;8.052;2023-08-17T10:15:24;18.70;99.90
40960;DHT22;27842;52.272;8.052;2023-08-17T10:18:07;18.70;99.90
40960;DHT22;27842;52.272;8.052;2023-08-17T10:20:34;18.70;99.80
40960;DHT22;27842;52.272;8.052;2023-08-17T10:23:06;18.80;99.90
40960;DHT22;27842;52.272;8.052;2023-08-17T10:25:33;18.70;99.90
40960;DHT22;27842;52.272;8.052;2023-08-17T10:27:59;18.80;99.90
40960;DHT22;27842;52.272;8.052;2023-08-17T10:30:28;18.80;99.90
40960;DHT22;27842;52.272;8.052;2023-08-17T10:32:54;18.80;99.90
40960;DHT22;27842;52.272;8.052;2023-08-17T10:35:20;18.80;99.90
40960;DHT22;27842;52.272;8.052;2023-08-17T10:37:45;18.80;99.80
40960;DHT22;27842;52.272;8.052;2023-08-17T10:40:11;18.80;99.90
40960;DHT22;27842;52.272;8.052;2023-08-17T10:42:36;18.90;99.70
40960;DHT22;27842;52.272;8.052;2023-08-17T10:50:32;18.90;99.90
40960;DHT22;27842;52.272;8.052;2023-08-17T10:53:13;18.90;99.80
40960;DHT22;27842;52.272;8.052;2023-08-17T10:55:47;18.90;99.90
40960;DHT22;27842;52.272;8.052;2023-08-17T10:58:16;18.90;99.80
40960;DHT22;27842;52.272;8.052;2023-08-17T11:00:42;19.00;99.90
40960;DHT22;27842;52.272;8.052;2023-08-17T11:03:09;19.00;99.80
40960;DHT22;27842;52.272;8.052;2023-08-17T11:05:40;19.10;99.90
40960;DHT22;27842;52.272;8.052;2023-08-17T11:08:06;19.00;99.90
40960;DHT22;27842;52.272;8.052;2023-08-17T11:10:32;19.00;99.90
40960;DHT22;27842;52.272;8.052;2023-08-17T11:12:58;19.00;99.90
40960;DHT22;27842;52.272;8.052;2023-08-17T11:15:45;19.00;99.90
40960;DHT22;27842;52.272;8.052;2023-08-17T11:18:13;18.90;99.90
40960;DHT22;27842;52.272;8.052;2023-08-17T11:20:41;19.00;99.90
40960;DHT22;27842;52.272;8.052;2023-08-17T11:23:07;19.00;99.90
40960;DHT22;27842;52.272;8.052;2023-08-17T11:25:33;19.00;99.90
40960;DHT22;27842;52.272;8.052;2023-08-17T11:28:03;19.00;99.90
40960;DHT22;27842;52.272;8.052;2023-08-17T11:30:29;19.00;99.90
40960;DHT22;27842;52.272;8.052;2023-08-17T11:32:55;19.00;99.90
40960;DHT22;27842;52.272;8.052;2023-08-17T11:35:21;19.10;99.90
40960;DHT22;27842;52.272;8.052;2023-08-17T11:37:47;19.20;99.90
40960;DHT22;27842;52.272;8.052;2023-08-17T11:40:13;19.20;99.90
40960;DHT22;27842;52.272;8.052;2023-08-17T11:42:39;19.20;99.90
40960;DHT22;27842;52.272;8.052;2023-08-17T11:45:05;19.20;99.80
40960;DHT22;27842;52.272;8.052;2023-08-17T11:47:31;19.20;99.90
40960;DHT22;27842;52.272;8.052;2023-08-17T11:50:04;19.20;99.80
40960;DHT22;27842;52.272;8.052;2023-08-17T11:52:30;19.30;99.90
40960;DHT22;27842;52.272;8.052;2023-08-17T11:54:58;19.30;99.80
40960;DHT22;27842;52.272;8.052;2023-08-17T11:57:23;19.30;99.70
40960;DHT22;27842;52.272;8.052;2023-08-17T11:59:52;19.30;99.90
40960;DHT22;27842;52.272;8.052;2023-08-17T12:02:17;19.30;99.90
40960;DHT22;27842;52.272;8.052;2023-08-17T12:04:43;19.30;99.70
40960;DHT22;27842;52.272;8.052;2023-08-17T12:07:09;19.40;99.60
40960;DHT22;27842;52.272;8.052;2023-08-17T12:09:34;19.40;99.60
40960;DHT22;27842;52.272;8.052;2023-08-17T12:12:00;19.40;99.70
40960;DHT22;27842;52.272;8.052;2023-08-17T12:14:29;19.40;99.50
40960;DHT22;27842;52.272;8.052;2023-08-17T12:16:55;19.50;99.60
40960;DHT22;27842;52.272;8.052;2023-08-17T12:19:21;19.50;99.90
40960;DHT22;27842;52.272;8.052;2023-08-17T12:21:47;19.50;99.70
40960;DHT22;27842;52.272;8.052;2023-08-17T12:24:13;19.50;99.60
40960;DHT22;27842;52.272;8.052;2023-08-17T12:26:43;19.50;99.80
40960;DHT22;27842;52.272;8.052;2023-08-17T12:29:08;19.50;99.40
40960;DHT22;27842;52.272;8.052;2023-08-17T12:31:34;19.50;99.40
40960;DHT22;27842;52.272;8.052;2023-08-17T12:34:00;19.60;99.40
40960;DHT22;27842;52.272;8.052;2023-08-17T12:36:25;19.60;99.60
40960;DHT22;27842;52.272;8.052;2023-08-17T12:38:51;19.60;99.50
40960;DHT22;27842;52.272;8.052;2023-08-17T12:41:16;19.60;99.90
40960;DHT22;27842;52.272;8.052;2023-08-17T12:43:43;19.50;99.70
40960;DHT22;27842;52.272;8.052;2023-08-17T12:46:08;19.50;99.60
40960;DHT22;27842;52.272;8.052;2023-08-17T12:48:34;19.60;99.50
40960;DHT22;27842;52.272;8.052;2023-08-17T12:50:59;19.60;99.70
40960;DHT22;27842;52.272;8.052;2023-08-17T12:53:25;19.60;99.60
40960;DHT22;27842;52.272;8.052;2023-08-17T12:55:50;19.60;99.50
40960;DHT22;27842;52.272;8.052;2023-08-17T12:58:16;19.60;99.50
40960;DHT22;27842;52.272;8.052;2023-08-17T13:00:41;19.60;99.50
40960;DHT22;27842;52.272;8.052;2023-08-17T13:03:07;19.60;99.90
40960;DHT22;27842;52.272;8.052;2023-08-17T13:05:32;19.60;99.50
40960;DHT22;27842;52.272;8.052;2023-08-17T13:07:58;19.50;99.90
40960;DHT22;27842;52.272;8.052;2023-08-17T13:10:23;19.50;99.60
40960;DHT22;27842;52.272;8.052;2023-08-17T13:12:49;19.50;99.60
40960;DHT22;27842;52.272;8.052;2023-08-17T13:15:18;19.50;99.50
40960;DHT22;27842;52.272;8.052;2023-08-17T13:17:44;19.50;99.70
40960;DHT22;27842;52.272;8.052;2023-08-17T13:20:09;19.60;99.50
40960;DHT22;27842;52.272;8.052;2023-08-17T13:22:35;19.60;99.50
40960;DHT22;27842;52.272;8.052;2023-08-17T13:25:01;19.70;99.50
40960;DHT22;27842;52.272;8.052;2023-08-17T13:27:27;19.60;99.40
40960;DHT22;27842;52.272;8.052;2023-08-17T13:29:52;19.60;99.90
40960;DHT22;27842;52.272;8.052;2023-08-17T13:32:18;19.60;99.40
40960;DHT22;27842;52.272;8.052;2023-08-17T13:34:43;19.60;99.40
40960;DHT22;27842;52.272;8.052;2023-08-17T13:37:08;19.60;99.40
40960;DHT22;27842;52.272;8.052;2023-08-17T13:39:34;19.60;99.40
40960;DHT22;27842;52.272;8.052;2023-08-17T13:42:00;19.60;99.40
40960;DHT22;27842;52.272;8.052;2023-08-17T13:44:25;19.50;99.50
40960;DHT22;27842;52.272;8.052;2023-08-17T13:46:51;19.60;99.40
40960;DHT22;27842;52.272;8.052;2023-08-17T13:49:16;19.60;99.70
40960;DHT22;27842;52.272;8.052;2023-08-17T13:51:41;19.60;99.30
40960;DHT22;27842;52.272;8.052;2023-08-17T13:54:07;19.60;99.30
40960;DHT22;27842;52.272;8.052;2023-08-17T13:56:32;19.70;99.30
40960;DHT22;27842;52.272;8.052;2023-08-17T13:58:58;19.70;99.20
40960;DHT22;27842;52.272;8.052;2023-08-17T14:01:23;19.70;99.20
40960;DHT22;27842;52.272;8.052;2023-08-17T14:03:49;19.70;99.20
40960;DHT22;27842;52.272;8.052;2023-08-17T14:06:14;19.70;99.20
40960;DHT22;27842;52.272;8.052;2023-08-17T14:08:41;19.60;99.10
40960;DHT22;27842;52.272;8.052;2023-08-17T14:11:06;19.60;99.20
40960;DHT22;27842;52.272;8.052;2023-08-17T14:13:32;19.70;99.20
40960;DHT22;27842;52.272;8.052;2023-08-17T14:15:58;19.60;99.10
40960;DHT22;27842;52.272;8.052;2023-08-17T14:18:24;19.60;99.20
40960;DHT22;27842;52.272;8.052;2023-08-17T14:20:50;19.60;99.10
40960;DHT22;27842;52.272;8.052;2023-08-17T14:23:15;19.60;99.10
40960;DHT22;27842;52.272;8.052;2023-08-17T14:25:41;19.60;99.10
40960;DHT22;27842;52.272;8.052;2023-08-17T14:28:07;19.50;99.10
40960;DHT22;27842;52.272;8.052;2023-08-17T14:30:33;19.60;99.20
40960;DHT22;27842;52.272;8.052;2023-08-17T14:32:58;19.60;99.20
40960;DHT22;27842;52.272;8.052;2023-08-17T14:35:24;19.60;99.20
40960;DHT22;27842;52.272;8.052;2023-08-17T14:37:49;19.60;99.20
40960;DHT22;27842;52.272;8.052;2023-08-17T14:40:15;19.70;99.20
40960;DHT22;27842;52.272;8.052;2023-08-17T14:42:42;19.70;99.10
40960;DHT22;27842;52.272;8.052;2023-08-17T14:45:08;19.70;99.00
40960;DHT22;27842;52.272;8.052;2023-08-17T14:47:33;19.70;99.10
40960;DHT22;27842;52.272;8.052;2023-08-17T14:49:59;19.70;99.00
40960;DHT22;27842;52.272;8.052;2023-08-17T14:52:24;19.80;98.90
40960;DHT22;27842;52.272;8.052;2023-08-17T14:55:04;19.80;98.80
40960;DHT22;27842;52.272;8.052;2023-08-17T14:57:31;19.80;98.70
40960;DHT22;27842;52.272;8.052;2023-08-17T14:59:56;19.80;98.80
40960;DHT22;27842;52.272;8.052;2023-08-17T15:02:22;19.80;98.60
40960;DHT22;27842;52.272;8.052;2023-08-17T15:04:47;19.80;98.60
40960;DHT22;27842;52.272;8.052;2023-08-17T15:07:13;19.80;98.60
40960;DHT22;27842;52.272;8.052;2023-08-17T15:09:38;19.70;98.60
40960;DHT22;27842;52.272;8.052;2023-08-17T15:12:04;19.60;98.60
40960;DHT22;27842;52.272;8.052;2023-08-17T15:14:30;19.60;98.70
40960;DHT22;27842;52.272;8.052;2023-08-17T15:16:55;19.60;98.60
40960;DHT22;27842;52.272;8.052;2023-08-17T15:19:21;19.60;98.70
40960;DHT22;27842;52.272;8.052;2023-08-17T15:21:46;19.50;98.70
40960;DHT22;27842;52.272;8.052;2023-08-17T15:24:12;19.50;98.70
40960;DHT22;27842;52.272;8.052;2023-08-17T15:26:37;19.50;99.00
40960;DHT22;27842;52.272;8.052;2023-08-17T15:29:03;19.40;98.90
40960;DHT22;27842;52.272;8.052;2023-08-17T15:31:28;19.30;99.10
40960;DHT22;27842;52.272;8.052;2023-08-17T15:33:54;19.30;99.30